createdAt,value
2023-11-15T00:00:33.374Z,7.00
2023-11-15T00:03:08.011Z,8.70
2023-11-15T00:05:41.432Z,8.70
2023-11-15T00:08:15.466Z,8.90
2023-11-15T00:10:49.241Z,7.50
2023-11-15T00:15:54.426Z,6.50
2023-11-15T00:18:28.339Z,6.80
2023-11-15T00:21:01.928Z,5.90
2023-11-15T00:23:36.557Z,10.90
2023-11-15T00:26:10.526Z,8.20
2023-11-15T00:28:45.872Z,8.40
2023-11-15T00:31:21.109Z,6.50
2023-11-15T00:33:55.304Z,8.10
2023-11-15T00:36:29.659Z,8.30
2023-11-15T00:39:03.668Z,7.10
2023-11-15T00:41:37.100Z,7.70
2023-11-15T00:44:10.876Z,10.60
2023-11-15T00:46:43.974Z,7.60
2023-11-15T00:49:17.826Z,8.90
2023-11-15T00:51:53.385Z,8.50
2023-11-15T00:54:27.024Z,6.80
2023-11-15T00:59:39.196Z,8.90
2023-11-15T01:02:13.438Z,7.20
2023-11-15T01:04:48.698Z,8.20
2023-11-15T01:07:22.538Z,9.50
2023-11-15T01:09:56.974Z,7.60
2023-11-15T01:12:30.791Z,6.50
2023-11-15T01:15:06.684Z,7.80
2023-11-15T01:17:40.455Z,7.20
2023-11-15T01:20:16.637Z,9.30
2023-11-15T01:22:50.471Z,6.20
2023-11-15T01:25:23.680Z,7.00
2023-11-15T01:27:57.555Z,5.90
2023-11-15T01:30:43.762Z,7.90
2023-11-15T01:33:27.217Z,11.20
2023-11-15T01:36:20.349Z,7.30
2023-11-15T01:38:54.570Z,7.20
2023-11-15T01:41:27.952Z,6.80
2023-11-15T01:44:01.230Z,8.80
2023-11-15T01:46:35.183Z,6.00
2023-11-15T01:49:09.045Z,6.70
2023-11-15T01:51:42.860Z,10.80
2023-11-15T01:54:18.568Z,7.20
2023-11-15T01:56:52.544Z,6.00
2023-11-15T01:59:26.299Z,6.40
2023-11-15T02:02:00.686Z,5.90
2023-11-15T02:04:34.335Z,5.80
2023-11-15T02:07:09.177Z,4.40
2023-11-15T02:09:44.063Z,6.40
2023-11-15T02:12:19.964Z,4.20
2023-11-15T02:14:53.308Z,7.70
2023-11-15T02:19:58.354Z,7.10
2023-11-15T02:22:33.148Z,5.50
2023-11-15T02:25:07.446Z,5.40
2023-11-15T02:27:40.964Z,5.40
2023-11-15T02:32:50.727Z,5.50
2023-11-15T02:35:38.822Z,4.50
2023-11-15T02:38:12.733Z,6.30
2023-11-15T02:40:47.077Z,4.20
2023-11-15T02:43:20.680Z,4.50
2023-11-15T02:45:54.494Z,5.20
2023-11-15T02:48:28.491Z,4.30
2023-11-15T02:51:02.361Z,4.20
2023-11-15T02:53:35.834Z,4.00
2023-11-15T02:56:10.166Z,5.20
2023-11-15T02:58:45.971Z,5.20
2023-11-15T03:01:19.642Z,4.80
2023-11-15T03:06:24.601Z,4.90
2023-11-15T03:08:58.750Z,3.30
2023-11-15T03:11:32.831Z,3.80
2023-11-15T03:14:06.643Z,5.50
2023-11-15T03:19:12.010Z,5.50
2023-11-15T03:21:45.325Z,5.00
2023-11-15T03:24:19.030Z,3.90
2023-11-15T03:26:53.224Z,5.10
2023-11-15T03:29:26.950Z,5.20
2023-11-15T03:34:32.700Z,3.10
2023-11-15T03:37:06.470Z,4.00
2023-11-15T03:39:40.934Z,3.50
2023-11-15T03:42:15.159Z,5.10
2023-11-15T03:44:49.810Z,3.40
2023-11-15T03:47:25.301Z,2.80
2023-11-15T03:49:59.456Z,3.90
2023-11-15T03:52:32.990Z,5.30
2023-11-15T03:57:37.754Z,3.40
2023-11-15T04:00:14.472Z,3.60
2023-11-15T04:02:48.647Z,4.00
2023-11-15T04:05:22.447Z,5.90
2023-11-15T04:07:55.960Z,5.70
2023-11-15T04:10:29.569Z,3.70
2023-11-15T04:13:04.414Z,5.30
2023-11-15T04:15:39.115Z,3.00
2023-11-15T04:18:12.134Z,2.90
2023-11-15T04:20:45.769Z,5.60
2023-11-15T04:23:19.714Z,3.40
2023-11-15T04:25:53.283Z,4.00
2023-11-15T04:28:26.590Z,3.00
2023-11-15T04:30:59.925Z,3.60
2023-11-15T04:33:33.454Z,2.20
2023-11-15T04:38:39.176Z,3.20
2023-11-15T04:41:13.447Z,6.40
2023-11-15T04:43:46.945Z,2.70
2023-11-15T04:48:54.832Z,2.40
2023-11-15T04:51:28.975Z,2.50
2023-11-15T04:54:02.044Z,2.10
2023-11-15T04:56:37.528Z,2.70
2023-11-15T04:59:12.568Z,2.00
2023-11-15T05:01:47.651Z,4.40
2023-11-15T05:04:21.576Z,4.40
2023-11-15T05:06:56.539Z,2.70
2023-11-15T05:09:30.073Z,2.40
2023-11-15T05:14:37.739Z,4.50
2023-11-15T05:17:11.869Z,2.40
2023-11-15T05:19:47.314Z,2.40
2023-11-15T05:22:20.760Z,3.40
2023-11-15T05:24:56.915Z,2.10
2023-11-15T05:27:31.116Z,2.70
2023-11-15T05:32:38.389Z,4.10
2023-11-15T05:35:15.891Z,2.60
2023-11-15T05:37:50.174Z,2.20
2023-11-15T05:40:23.221Z,1.30
2023-11-15T05:42:56.675Z,2.50
2023-11-15T05:45:29.790Z,1.80
2023-11-15T05:48:03.450Z,2.30
2023-11-15T05:53:08.780Z,2.30
2023-11-15T05:55:43.975Z,3.30
2023-11-15T05:58:18.481Z,1.50
2023-11-15T06:00:56.053Z,1.50
2023-11-15T06:03:31.223Z,2.10
2023-11-15T06:06:05.176Z,1.80
2023-11-15T06:08:40.418Z,1.60
2023-11-15T06:11:14.016Z,1.20
2023-11-15T06:16:20.929Z,1.30
2023-11-15T06:18:55.292Z,2.00
2023-11-15T06:21:29.118Z,1.90
2023-11-15T06:24:02.913Z,2.30
2023-11-15T06:26:40.339Z,3.20
2023-11-15T06:29:14.662Z,15.70
2023-11-15T06:31:50.358Z,23.60
2023-11-15T06:34:23.887Z,5.90
2023-11-15T06:36:57.856Z,3.40
2023-11-15T06:39:31.463Z,4.00
2023-11-15T06:42:05.649Z,4.70
2023-11-15T06:44:39.097Z,3.80
2023-11-15T06:47:16.740Z,3.40
2023-11-15T06:49:50.394Z,4.30
2023-11-15T06:52:23.650Z,3.90
2023-11-15T06:54:57.714Z,3.80
2023-11-15T06:57:53.857Z,4.00
2023-11-15T07:00:42.269Z,3.50
2023-11-15T07:05:53.314Z,5.40
2023-11-15T07:08:26.647Z,5.60
2023-11-15T07:13:36.585Z,3.90
2023-11-15T07:16:13.773Z,4.40
2023-11-15T07:18:47.745Z,3.20
2023-11-15T07:21:21.943Z,5.00
2023-11-15T07:23:56.466Z,4.20
2023-11-15T07:26:37.556Z,3.10
2023-11-15T07:29:14.970Z,5.30
2023-11-15T07:31:53.734Z,3.30
2023-11-15T07:34:28.939Z,3.30
2023-11-15T07:37:03.260Z,4.30
2023-11-15T07:39:38.263Z,3.00
2023-11-15T07:42:17.084Z,3.10
2023-11-15T07:44:52.881Z,3.50
2023-11-15T07:47:27.242Z,4.10
2023-11-15T07:50:01.148Z,6.10
2023-11-15T07:52:35.098Z,4.70
2023-11-15T07:55:13.652Z,3.80
2023-11-15T07:57:48.198Z,3.70
2023-11-15T08:00:26.293Z,3.60
2023-11-15T08:03:00.044Z,3.40
2023-11-15T08:08:07.742Z,3.70
2023-11-15T08:10:48.548Z,3.40
2023-11-15T08:13:23.548Z,4.20
2023-11-15T08:15:58.254Z,3.80
2023-11-15T08:18:33.932Z,3.90
2023-11-15T08:21:11.216Z,3.50
2023-11-15T08:23:47.011Z,4.90
2023-11-15T08:26:25.743Z,4.30
2023-11-15T08:29:00.695Z,4.90
2023-11-15T08:31:35.171Z,5.90
2023-11-15T08:34:10.103Z,4.40
2023-11-15T08:36:45.971Z,4.80
2023-11-15T08:39:20.005Z,6.00
2023-11-15T08:41:56.326Z,7.00
2023-11-15T08:44:30.456Z,7.10
2023-11-15T08:47:05.839Z,9.40
2023-11-15T08:49:40.507Z,6.50
2023-11-15T08:52:15.137Z,8.40
2023-11-15T08:54:49.794Z,6.30
2023-11-15T08:57:23.853Z,7.70
2023-11-15T08:59:59.500Z,9.60
2023-11-15T09:02:35.930Z,8.10
2023-11-15T09:05:10.090Z,8.80
2023-11-15T09:07:43.735Z,8.30
2023-11-15T09:10:18.187Z,8.90
2023-11-15T09:12:51.517Z,9.20
2023-11-15T09:15:26.153Z,9.80
2023-11-15T09:18:02.040Z,9.30
2023-11-15T09:20:38.662Z,10.60
2023-11-15T09:23:22.461Z,9.80
2023-11-15T09:26:03.447Z,8.50
2023-11-15T09:28:39.025Z,9.60
2023-11-15T09:31:15.640Z,10.30
2023-11-15T09:33:49.546Z,9.30
2023-11-15T09:36:23.169Z,9.40
2023-11-15T09:38:58.699Z,7.60
2023-11-15T09:41:35.459Z,7.70
2023-11-15T09:44:13.113Z,8.20
2023-11-15T09:46:50.730Z,10.80
2023-11-15T09:49:27.491Z,6.90
2023-11-15T09:52:02.322Z,6.50
2023-11-15T09:54:41.233Z,5.60
2023-11-15T09:57:16.973Z,5.40
2023-11-15T10:00:01.215Z,7.20
2023-11-15T10:02:45.108Z,8.30
2023-11-15T10:05:25.571Z,8.80
2023-11-15T10:08:13.149Z,5.50
2023-11-15T10:10:48.997Z,4.90
2023-11-15T10:13:24.321Z,6.10
2023-11-15T10:15:59.403Z,4.00
2023-11-15T10:18:37.252Z,4.90
2023-11-15T10:21:19.558Z,7.10
2023-11-15T10:23:56.413Z,5.40
2023-11-15T10:26:42.003Z,4.50
2023-11-15T10:29:15.549Z,6.20
2023-11-15T10:31:58.416Z,4.40
2023-11-15T10:34:36.553Z,4.40
2023-11-15T10:37:12.647Z,7.80
2023-11-15T10:39:48.068Z,5.60
2023-11-15T10:42:24.796Z,5.40
2023-11-15T10:45:06.463Z,4.00
2023-11-15T10:47:54.520Z,3.80
2023-11-15T10:50:32.873Z,6.10
2023-11-15T10:53:12.667Z,5.30
2023-11-15T10:55:56.986Z,5.70
2023-11-15T10:58:33.017Z,6.10
2023-11-15T11:01:09.392Z,5.40
2023-11-15T11:03:45.531Z,3.70
2023-11-15T11:06:49.320Z,4.40
2023-11-15T11:09:37.536Z,3.50
2023-11-15T11:12:19.590Z,4.50
2023-11-15T11:15:29.541Z,3.30
2023-11-15T11:18:15.822Z,3.60
2023-11-15T11:21:05.546Z,3.70
2023-11-15T11:23:40.397Z,4.70
2023-11-15T11:26:39.125Z,3.90
2023-11-15T11:29:14.483Z,3.50
2023-11-15T11:32:09.449Z,3.80
2023-11-15T11:35:32.228Z,3.50
2023-11-15T11:38:09.111Z,2.80
2023-11-15T11:40:43.062Z,3.20
2023-11-15T11:43:28.736Z,3.90
2023-11-15T11:46:17.761Z,2.30
2023-11-15T11:49:01.792Z,2.60
2023-11-15T11:54:07.330Z,5.10
2023-11-15T11:56:41.839Z,1.70
2023-11-15T11:59:15.784Z,2.90
2023-11-15T12:01:56.227Z,3.30
2023-11-15T12:04:29.768Z,2.20
2023-11-15T12:07:05.886Z,3.20
2023-11-15T12:09:44.157Z,2.60
2023-11-15T12:12:20.738Z,3.00
2023-11-15T12:15:00.358Z,2.70
2023-11-15T12:17:43.429Z,3.50
2023-11-15T12:20:28.996Z,3.50
2023-11-15T12:23:11.628Z,3.00
2023-11-15T12:25:54.394Z,3.40
2023-11-15T12:28:28.893Z,4.60
2023-11-15T12:31:05.459Z,6.00
2023-11-15T12:33:42.153Z,6.00
2023-11-15T12:36:17.391Z,5.80
2023-11-15T12:39:00.243Z,6.20
2023-11-15T12:41:46.322Z,4.10
2023-11-15T12:44:21.588Z,3.20
2023-11-15T12:46:59.918Z,3.90
2023-11-15T12:49:36.635Z,4.40
2023-11-15T12:52:10.790Z,4.00
2023-11-15T12:54:57.972Z,4.70
2023-11-15T12:57:30.657Z,3.00
2023-11-15T13:00:11.233Z,4.10
2023-11-15T13:02:44.458Z,4.80
2023-11-15T13:05:26.708Z,4.70
2023-11-15T13:08:00.209Z,4.00
2023-11-15T13:13:12.884Z,5.50
2023-11-15T13:15:46.770Z,3.80
2023-11-15T13:18:22.112Z,3.10
2023-11-15T13:20:59.695Z,3.90
2023-11-15T13:23:33.670Z,4.40
2023-11-15T13:26:11.029Z,4.30
2023-11-15T13:29:03.622Z,3.50
2023-11-15T13:31:43.022Z,3.60
2023-11-15T13:34:20.836Z,13.90
2023-11-15T13:36:55.877Z,16.60
2023-11-15T13:39:48.816Z,13.30
2023-11-15T13:42:33.131Z,5.50
2023-11-15T13:45:08.784Z,3.90
2023-11-15T13:47:43.690Z,4.80
2023-11-15T13:50:17.762Z,4.40
2023-11-15T13:52:53.310Z,6.30
2023-11-15T13:55:30.702Z,6.40
2023-11-15T13:58:04.480Z,5.80
2023-11-15T14:03:12.040Z,4.90
2023-11-15T14:05:45.481Z,6.30
2023-11-15T14:10:51.633Z,4.50
2023-11-15T14:13:26.031Z,6.90
2023-11-15T14:16:04.082Z,5.70
2023-11-15T14:18:37.761Z,6.20
2023-11-15T14:21:15.927Z,5.80
2023-11-15T14:23:57.158Z,4.80
2023-11-15T14:26:34.460Z,4.30
2023-11-15T14:29:09.821Z,3.00
2023-11-15T14:31:46.114Z,2.60
2023-11-15T14:34:19.885Z,3.10
2023-11-15T14:36:56.599Z,3.50
2023-11-15T14:39:33.555Z,3.50
2023-11-15T14:42:08.440Z,2.80
2023-11-15T14:44:42.827Z,3.30
2023-11-15T14:47:18.283Z,3.60
2023-11-15T14:49:52.465Z,3.10
2023-11-15T14:52:28.073Z,3.40
2023-11-15T14:55:05.898Z,2.50
2023-11-15T14:57:40.766Z,4.10
2023-11-15T15:00:22.309Z,5.10
2023-11-15T15:02:59.174Z,3.00
2023-11-15T15:05:32.661Z,2.80
2023-11-15T15:08:06.368Z,2.60
2023-11-15T15:10:41.315Z,4.60
2023-11-15T15:13:15.670Z,2.10
2023-11-15T15:15:49.687Z,3.10
2023-11-15T15:18:32.340Z,3.20
2023-11-15T15:21:18.135Z,13.80
2023-11-15T15:23:52.220Z,3.70
2023-11-15T15:26:28.835Z,3.00
2023-11-15T15:29:05.744Z,7.30
2023-11-15T15:31:41.408Z,3.40
2023-11-15T15:34:15.675Z,3.00
2023-11-15T15:36:51.010Z,3.00
2023-11-15T15:39:27.462Z,4.50
2023-11-15T15:42:01.134Z,6.10
2023-11-15T15:44:35.455Z,6.50
2023-11-15T15:47:09.612Z,4.80
2023-11-15T15:49:48.405Z,7.10
2023-11-15T15:52:23.991Z,8.00
2023-11-15T15:54:57.742Z,12.20
2023-11-15T15:57:31.166Z,6.10
2023-11-15T16:00:04.763Z,7.90
2023-11-15T16:02:39.065Z,7.40
2023-11-15T16:05:15.801Z,7.30
2023-11-15T16:07:54.509Z,12.70
2023-11-15T16:10:30.029Z,9.30
2023-11-15T16:13:04.792Z,9.20
2023-11-15T16:15:38.530Z,9.90
2023-11-15T16:18:17.812Z,9.90
2023-11-15T16:20:52.172Z,7.90
2023-11-15T16:23:26.307Z,7.50
2023-11-15T16:26:01.442Z,7.70
2023-11-15T16:28:42.928Z,10.00
2023-11-15T16:31:21.192Z,7.70
2023-11-15T16:33:58.921Z,8.30
2023-11-15T16:36:39.553Z,7.90
2023-11-15T16:39:17.480Z,7.40
2023-11-15T16:41:57.042Z,7.60
2023-11-15T16:44:35.552Z,8.50
2023-11-15T16:47:11.880Z,8.30
2023-11-15T16:49:48.604Z,9.10
2023-11-15T16:52:25.122Z,18.90
2023-11-15T16:54:58.840Z,12.30
2023-11-15T16:57:32.658Z,10.90
2023-11-15T17:00:07.772Z,12.00
2023-11-15T17:02:43.379Z,8.10
2023-11-15T17:05:20.081Z,6.90
2023-11-15T17:07:53.409Z,8.10
2023-11-15T17:10:28.797Z,7.40
2023-11-15T17:13:05.745Z,6.80
2023-11-15T17:15:39.317Z,5.70
2023-11-15T17:18:13.754Z,5.80
2023-11-15T17:20:49.704Z,6.30
2023-11-15T17:23:24.550Z,32.60
2023-11-15T17:26:00.303Z,9.90
2023-11-15T17:28:34.505Z,8.50
2023-11-15T17:31:08.295Z,17.10
2023-11-15T17:33:44.728Z,9.30
2023-11-15T17:36:18.510Z,18.60
2023-11-15T17:41:24.064Z,9.20
2023-11-15T17:46:30.380Z,11.70
2023-11-15T17:49:03.627Z,8.50
2023-11-15T17:51:37.124Z,7.50
2023-11-15T17:54:12.257Z,8.50
2023-11-15T17:56:47.260Z,7.60
2023-11-15T17:59:21.434Z,5.60
2023-11-15T18:01:58.252Z,8.10
2023-11-15T18:04:32.111Z,7.50
2023-11-15T18:07:06.679Z,7.60
2023-11-15T18:09:41.704Z,8.70
2023-11-15T18:12:15.303Z,7.90
2023-11-15T18:14:48.674Z,6.90
2023-11-15T18:17:22.762Z,6.20
2023-11-15T18:22:28.840Z,7.10
2023-11-15T18:25:02.405Z,9.30
2023-11-15T18:27:37.772Z,8.00
2023-11-15T18:30:15.122Z,8.00
2023-11-15T18:32:49.966Z,7.30
2023-11-15T18:35:23.426Z,7.00
2023-11-15T18:37:58.515Z,8.30
2023-11-15T18:40:33.738Z,9.60
2023-11-15T18:43:07.599Z,8.20
2023-11-15T18:45:42.080Z,15.10
2023-11-15T18:48:15.594Z,22.20
2023-11-15T18:50:49.446Z,12.30
2023-11-15T18:53:23.994Z,8.40
2023-11-15T18:56:01.684Z,6.70
2023-11-15T18:58:40.402Z,5.80
2023-11-15T19:01:15.052Z,9.50
2023-11-15T19:03:49.591Z,6.60
2023-11-15T19:06:28.154Z,7.90
2023-11-15T19:09:23.114Z,6.20
2023-11-15T19:13:06.067Z,6.10
2023-11-15T19:24:07.474Z,7.60
2023-11-15T19:26:39.882Z,11.00
2023-11-15T19:29:13.364Z,15.40
2023-11-15T19:31:48.325Z,15.20
2023-11-15T19:34:20.474Z,9.70
2023-11-15T19:36:53.942Z,20.70
2023-11-15T19:39:27.676Z,25.10
2023-11-15T19:42:00.027Z,9.70
2023-11-15T19:44:32.154Z,18.40
2023-11-15T19:47:06.378Z,13.70
2023-11-15T19:49:40.458Z,21.40
2023-11-15T19:52:16.045Z,28.90
2023-11-15T19:54:50.512Z,13.60
2023-11-15T19:57:22.797Z,6.10
2023-11-15T19:59:55.664Z,5.20
2023-11-15T20:02:34.364Z,8.10
2023-11-15T20:05:12.387Z,11.00
2023-11-15T20:07:44.673Z,9.30
2023-11-15T20:10:17.151Z,9.80
2023-11-15T20:12:49.997Z,6.20
2023-11-15T20:15:23.509Z,4.50
2023-11-15T20:20:26.477Z,3.90
2023-11-15T20:23:02.765Z,4.70
2023-11-15T20:25:35.329Z,5.80
2023-11-15T20:28:08.564Z,5.70
2023-11-15T20:30:41.275Z,6.20
2023-11-15T20:33:13.900Z,5.30
2023-11-15T20:35:46.434Z,5.70
2023-11-15T20:38:19.240Z,8.50
2023-11-15T20:40:52.624Z,8.50
2023-11-15T20:43:25.706Z,11.60
2023-11-15T20:46:10.312Z,20.30
2023-11-15T20:48:49.014Z,10.60
2023-11-15T20:51:22.871Z,9.90
2023-11-15T20:53:57.018Z,8.00
2023-11-15T20:59:08.394Z,7.50
2023-11-15T21:01:40.842Z,6.60
2023-11-15T21:04:20.418Z,8.30
2023-11-15T21:06:54.482Z,6.40
2023-11-15T21:09:26.586Z,6.00
2023-11-15T21:11:58.781Z,7.60
2023-11-15T21:14:31.597Z,6.30
2023-11-15T21:17:03.806Z,7.30
2023-11-15T21:19:36.052Z,7.80
2023-11-15T21:22:08.643Z,8.00
2023-11-15T21:24:42.817Z,8.50
2023-11-15T21:27:15.937Z,8.40
2023-11-15T21:29:47.939Z,8.00
2023-11-15T21:32:20.213Z,7.00
2023-11-15T21:34:52.207Z,8.70
2023-11-15T21:37:25.425Z,7.80
2023-11-15T21:39:58.225Z,10.00
2023-11-15T21:42:30.309Z,8.30
2023-11-15T21:45:02.281Z,9.00
2023-11-15T21:47:34.847Z,10.90
2023-11-15T21:50:07.913Z,7.90
2023-11-15T21:52:41.023Z,8.20
2023-11-15T21:55:13.839Z,9.70
2023-11-15T21:57:47.280Z,9.40
2023-11-15T22:02:57.296Z,6.70
2023-11-15T22:05:31.210Z,9.20
2023-11-15T22:08:04.360Z,6.50
2023-11-15T22:10:36.248Z,8.50
2023-11-15T22:13:09.072Z,8.10
2023-11-15T22:15:41.523Z,8.40
2023-11-15T22:18:18.122Z,7.80
2023-11-15T22:20:56.606Z,7.90
2023-11-15T22:23:30.328Z,8.40
2023-11-15T22:26:02.258Z,8.00
2023-11-15T22:28:34.317Z,9.50
2023-11-15T22:31:07.483Z,8.80
2023-11-15T22:33:39.498Z,9.00
2023-11-15T22:36:12.693Z,9.40
2023-11-15T22:38:45.982Z,8.80
2023-11-15T22:41:18.505Z,10.20
2023-11-15T22:43:50.917Z,9.80
2023-11-15T22:46:25.886Z,9.80
2023-11-15T22:48:58.510Z,10.20
2023-11-15T22:51:30.825Z,10.20
2023-11-15T22:54:03.027Z,11.00
2023-11-15T22:56:35.193Z,11.50
2023-11-15T22:59:08.944Z,10.30
2023-11-15T23:01:40.941Z,12.00
2023-11-15T23:04:17.189Z,11.50
2023-11-15T23:06:55.724Z,12.90
2023-11-15T23:09:28.373Z,13.40
2023-11-15T23:12:00.524Z,13.90
2023-11-15T23:14:33.238Z,10.40
2023-11-15T23:17:05.731Z,10.60
2023-11-15T23:19:37.918Z,11.00
2023-11-15T23:22:10.061Z,12.00
2023-11-15T23:24:42.900Z,14.40
2023-11-15T23:27:17.212Z,13.50
2023-11-15T23:29:49.471Z,13.70
2023-11-15T23:32:23.110Z,11.60
2023-11-15T23:34:56.866Z,13.80
2023-11-15T23:37:28.846Z,12.40
2023-11-15T23:40:01.235Z,9.80
2023-11-15T23:42:33.385Z,13.70
2023-11-15T23:45:08.196Z,11.40
2023-11-15T23:47:40.273Z,10.50
2023-11-15T23:50:14.364Z,9.80
2023-11-15T23:52:46.352Z,11.60
2023-11-15T23:55:19.413Z,11.10
2023-11-15T23:57:52.199Z,10.30
